createdAt,value
2022-08-03T00:01:41.411Z,99.90
2022-08-03T00:04:12.430Z,99.90
2022-08-03T00:06:41.989Z,99.90
2022-08-03T00:09:10.498Z,99.90
2022-08-03T00:11:39.098Z,99.90
2022-08-03T00:14:07.911Z,99.90
2022-08-03T00:16:36.041Z,99.90
2022-08-03T00:19:04.967Z,99.90
2022-08-03T00:21:36.521Z,99.90
2022-08-03T00:24:04.916Z,99.90
2022-08-03T00:26:32.985Z,99.90
2022-08-03T00:29:01.260Z,99.90
2022-08-03T00:31:51.553Z,99.90
2022-08-03T00:34:18.336Z,99.90
2022-08-03T00:37:06.209Z,99.90
2022-08-03T00:39:34.255Z,99.90
2022-08-03T00:42:06.271Z,99.90
2022-08-03T00:44:40.732Z,99.90
2022-08-03T00:47:10.223Z,99.90
2022-08-03T00:49:41.052Z,99.90
2022-08-03T00:52:12.684Z,99.90
2022-08-03T00:54:41.443Z,99.90
2022-08-03T00:57:09.723Z,99.90
2022-08-03T00:59:39.321Z,99.90
2022-08-03T01:02:07.483Z,99.90
2022-08-03T01:04:35.498Z,99.90
2022-08-03T01:07:10.713Z,99.90
2022-08-03T01:09:51.392Z,99.90
2022-08-03T01:12:29.975Z,99.90
2022-08-03T01:15:06.661Z,99.90
2022-08-03T01:17:41.518Z,99.90
2022-08-03T01:20:13.652Z,99.90
2022-08-03T01:23:01.770Z,99.90
2022-08-03T01:25:39.853Z,99.90
2022-08-03T01:28:23.419Z,99.90
2022-08-03T01:30:57.485Z,99.90
2022-08-03T01:33:29.391Z,99.90
2022-08-03T01:36:01.542Z,99.90
2022-08-03T01:38:33.573Z,99.90
2022-08-03T01:41:08.484Z,99.90
2022-08-03T01:44:28.544Z,99.90
2022-08-03T01:46:28.806Z,99.90
2022-08-03T01:48:58.182Z,99.90
2022-08-03T01:52:03.583Z,99.90
2022-08-03T01:54:15.348Z,99.90
2022-08-03T01:56:45.201Z,99.90
2022-08-03T01:59:15.705Z,99.90
2022-08-03T02:02:28.360Z,99.90
2022-08-03T02:04:39.078Z,99.90
2022-08-03T02:07:08.958Z,99.90
2022-08-03T02:09:39.618Z,99.90
2022-08-03T02:12:10.446Z,99.90
2022-08-03T02:14:40.193Z,99.90
2022-08-03T02:17:11.126Z,99.90
2022-08-03T02:19:40.676Z,99.90
2022-08-03T02:22:12.128Z,99.90
2022-08-03T02:24:41.526Z,99.90
2022-08-03T02:27:19.426Z,99.90
2022-08-03T02:29:50.475Z,99.90
2022-08-03T02:32:25.199Z,99.90
2022-08-03T02:34:55.954Z,99.90
2022-08-03T02:37:27.152Z,99.90
2022-08-03T02:39:58.942Z,99.90
2022-08-03T02:42:29.618Z,99.90
2022-08-03T02:44:59.975Z,99.90
2022-08-03T02:47:54.600Z,99.90
2022-08-03T02:50:20.982Z,99.90
2022-08-03T02:52:49.736Z,99.90
2022-08-03T02:55:20.785Z,99.90
2022-08-03T02:57:49.932Z,99.90
2022-08-03T03:00:19.372Z,99.90
2022-08-03T03:02:58.890Z,99.90
2022-08-03T03:05:55.014Z,99.90
2022-08-03T03:08:20.752Z,99.90
2022-08-03T03:10:55.898Z,99.90
2022-08-03T03:13:24.658Z,99.90
2022-08-03T03:15:58.618Z,99.90
2022-08-03T03:18:33.156Z,99.90
2022-08-03T03:21:04.526Z,99.90
2022-08-03T03:23:36.321Z,99.90
2022-08-03T03:26:05.095Z,99.90
2022-08-03T03:28:34.311Z,99.90
2022-08-03T03:31:02.464Z,99.90
2022-08-03T03:33:31.913Z,99.90
2022-08-03T03:36:02.764Z,99.90
2022-08-03T03:38:32.950Z,99.90
2022-08-03T03:41:05.276Z,99.90
2022-08-03T03:43:33.870Z,99.90
2022-08-03T03:46:02.226Z,99.90
2022-08-03T03:48:32.309Z,99.90
2022-08-03T03:51:00.737Z,99.90
2022-08-03T03:53:29.057Z,99.90
2022-08-03T03:55:59.653Z,99.90
2022-08-03T03:58:33.340Z,99.90
2022-08-03T04:01:01.946Z,99.90
2022-08-03T04:03:31.576Z,99.90
2022-08-03T04:06:18.378Z,99.90
2022-08-03T04:09:03.578Z,99.90
2022-08-03T04:11:37.575Z,99.90
2022-08-03T04:14:09.998Z,99.90
2022-08-03T04:16:44.005Z,99.90
2022-08-03T04:19:22.917Z,99.90
2022-08-03T04:21:57.216Z,99.90
2022-08-03T04:24:31.529Z,99.90
2022-08-03T04:27:01.907Z,99.90
2022-08-03T04:29:33.103Z,99.90
2022-08-03T04:32:03.288Z,99.90
2022-08-03T04:34:33.287Z,99.90
2022-08-03T04:37:03.987Z,99.90
2022-08-03T04:39:33.781Z,99.90
2022-08-03T04:42:08.526Z,99.90
2022-08-03T04:44:47.813Z,99.90
2022-08-03T04:47:16.349Z,99.90
2022-08-03T04:49:46.285Z,99.90
2022-08-03T04:52:14.658Z,99.90
2022-08-03T04:54:51.242Z,99.90
2022-08-03T04:57:22.782Z,99.90
2022-08-03T05:00:01.486Z,99.90
2022-08-03T05:02:33.913Z,99.90
2022-08-03T05:05:03.388Z,99.90
2022-08-03T05:07:35.445Z,99.90
2022-08-03T05:10:16.173Z,99.90
2022-08-03T05:12:46.660Z,99.90
2022-08-03T05:15:14.886Z,99.90
2022-08-03T05:17:43.260Z,99.90
2022-08-03T05:20:13.824Z,99.90
2022-08-03T05:22:46.122Z,99.90
2022-08-03T05:25:17.243Z,99.90
2022-08-03T05:27:47.967Z,99.90
2022-08-03T05:30:31.430Z,99.90
2022-08-03T05:33:03.368Z,99.90
2022-08-03T05:35:57.537Z,99.90
2022-08-03T05:38:28.941Z,99.90
2022-08-03T05:41:22.856Z,99.90
2022-08-03T05:43:52.666Z,99.90
2022-08-03T05:46:21.446Z,99.90
2022-08-03T05:48:49.567Z,99.90
2022-08-03T05:51:19.040Z,99.90
2022-08-03T05:53:47.241Z,99.90
2022-08-03T05:56:16.557Z,99.90
2022-08-03T05:58:46.629Z,99.90
2022-08-03T06:01:16.616Z,99.90
2022-08-03T06:03:44.840Z,99.90
2022-08-03T06:06:13.238Z,99.90
2022-08-03T06:08:43.226Z,99.90
2022-08-03T06:11:18.285Z,99.90
2022-08-03T06:13:47.077Z,99.90
2022-08-03T06:16:15.159Z,99.90
2022-08-03T06:18:46.038Z,99.90
2022-08-03T06:21:16.164Z,99.90
2022-08-03T06:23:53.074Z,99.90
2022-08-03T06:26:26.519Z,99.90
2022-08-03T06:28:55.392Z,99.90
2022-08-03T06:31:32.916Z,99.90
2022-08-03T06:34:33.975Z,99.90
2022-08-03T06:36:52.269Z,99.90
2022-08-03T06:39:23.439Z,99.90
2022-08-03T06:41:53.492Z,99.90
2022-08-03T06:44:21.530Z,99.90
2022-08-03T06:46:51.883Z,99.90
2022-08-03T06:49:20.158Z,99.90
2022-08-03T06:52:04.118Z,99.90
2022-08-03T06:54:37.956Z,99.90
2022-08-03T06:57:08.151Z,99.90
2022-08-03T07:00:08.343Z,99.90
2022-08-03T07:02:24.415Z,99.90
2022-08-03T07:04:56.373Z,99.90
2022-08-03T07:07:24.421Z,99.90
2022-08-03T07:09:57.730Z,99.90
2022-08-03T07:12:27.821Z,99.90
2022-08-03T07:15:00.341Z,99.90
2022-08-03T07:17:30.335Z,99.90
2022-08-03T07:19:58.636Z,99.90
2022-08-03T07:22:26.785Z,99.90
2022-08-03T07:24:56.499Z,99.90
2022-08-03T07:27:24.590Z,99.90
2022-08-03T07:29:52.705Z,99.90
2022-08-03T07:32:20.739Z,99.90
2022-08-03T07:34:48.823Z,99.90
2022-08-03T07:37:16.865Z,99.90
2022-08-03T07:39:45.130Z,99.90
2022-08-03T07:42:14.922Z,99.90
2022-08-03T07:44:43.255Z,99.90
2022-08-03T07:47:16.567Z,99.90
2022-08-03T07:49:50.980Z,99.20
2022-08-03T07:52:36.999Z,99.90
2022-08-03T07:55:06.441Z,97.80
2022-08-03T07:57:36.603Z,98.30
2022-08-03T08:00:06.510Z,95.00
2022-08-03T08:02:40.686Z,94.30
2022-08-03T08:05:10.824Z,93.50
2022-08-03T08:07:39.289Z,93.90
2022-08-03T08:10:08.813Z,95.20
2022-08-03T08:12:38.960Z,94.20
2022-08-03T08:15:08.949Z,94.10
2022-08-03T08:17:43.464Z,93.60
2022-08-03T08:20:12.765Z,94.90
2022-08-03T08:22:40.802Z,93.30
2022-08-03T08:25:09.901Z,94.00
2022-08-03T08:28:29.460Z,93.90
2022-08-03T08:30:34.509Z,94.10
2022-08-03T08:33:03.271Z,93.30
2022-08-03T08:35:31.658Z,92.00
2022-08-03T08:38:05.677Z,93.20
2022-08-03T08:40:34.112Z,91.60
2022-08-03T08:43:04.030Z,94.30
2022-08-03T08:45:32.318Z,91.80
2022-08-03T08:48:07.851Z,91.50
2022-08-03T08:50:39.729Z,92.40
2022-08-03T08:53:11.636Z,91.60
2022-08-03T08:55:59.755Z,91.30
2022-08-03T08:58:35.184Z,91.30
2022-08-03T09:01:04.210Z,91.10
2022-08-03T09:03:34.323Z,91.30
2022-08-03T09:06:03.160Z,90.00
2022-08-03T09:08:32.641Z,90.30
2022-08-03T09:11:01.159Z,90.30
2022-08-03T09:13:30.664Z,88.00
2022-08-03T09:16:12.056Z,91.00
2022-08-03T09:18:40.891Z,92.00
2022-08-03T09:21:36.265Z,89.10
2022-08-03T09:24:10.245Z,88.10
2022-08-03T09:26:41.309Z,87.80
2022-08-03T09:29:14.745Z,86.20
2022-08-03T09:31:45.929Z,89.00
2022-08-03T09:34:15.527Z,87.90
2022-08-03T09:36:45.769Z,87.60
2022-08-03T09:39:15.873Z,87.90
2022-08-03T09:41:46.481Z,91.10
2022-08-03T09:44:24.848Z,88.60
2022-08-03T09:46:56.398Z,85.70
2022-08-03T09:49:25.283Z,87.10
2022-08-03T09:52:31.836Z,87.90
2022-08-03T09:54:44.272Z,88.30
2022-08-03T09:57:23.188Z,87.80
2022-08-03T10:00:01.893Z,87.40
2022-08-03T10:02:41.665Z,87.10
2022-08-03T10:05:19.645Z,89.10
2022-08-03T10:07:49.819Z,85.00
2022-08-03T10:10:30.255Z,82.60
2022-08-03T10:13:01.480Z,81.60
2022-08-03T10:16:21.917Z,88.20
2022-08-03T10:18:19.479Z,84.90
2022-08-03T10:20:52.678Z,85.40
2022-08-03T10:23:22.441Z,84.30
2022-08-03T10:25:58.995Z,85.40
2022-08-03T10:28:29.116Z,84.10
2022-08-03T10:30:58.494Z,86.00
2022-08-03T10:33:51.040Z,87.10
2022-08-03T10:36:21.393Z,83.90
2022-08-03T10:38:52.855Z,83.90
2022-08-03T10:41:22.294Z,84.10
2022-08-03T10:43:54.180Z,82.40
2022-08-03T10:46:23.520Z,83.40
2022-08-03T10:48:53.785Z,83.30
2022-08-03T10:51:22.650Z,81.50
2022-08-03T10:53:55.541Z,82.20
2022-08-03T10:56:58.345Z,81.20
2022-08-03T10:59:59.262Z,78.20
2022-08-03T11:03:07.292Z,77.80
2022-08-03T11:05:37.803Z,81.10
2022-08-03T11:08:27.914Z,75.70
2022-08-03T11:10:59.298Z,77.90
2022-08-03T11:13:32.013Z,74.50
2022-08-03T11:16:06.149Z,77.70
2022-08-03T11:18:36.612Z,78.40
2022-08-03T11:21:04.862Z,81.20
2022-08-03T11:24:05.072Z,74.50
2022-08-03T11:26:33.364Z,72.10
2022-08-03T11:29:28.902Z,77.10
2022-08-03T11:31:57.008Z,71.10
2022-08-03T11:34:27.173Z,77.10
2022-08-03T11:37:22.515Z,73.60
2022-08-03T11:39:56.948Z,78.00
2022-08-03T11:42:41.615Z,71.80
2022-08-03T11:45:10.923Z,71.80
2022-08-03T11:47:50.172Z,72.30
2022-08-03T11:50:21.676Z,68.70
2022-08-03T11:52:50.710Z,71.90
2022-08-03T11:55:22.056Z,71.90
2022-08-03T11:59:00.986Z,68.90
2022-08-03T12:00:38.560Z,73.10
2022-08-03T12:03:09.181Z,70.30
2022-08-03T12:05:41.578Z,71.30
2022-08-03T12:08:29.852Z,72.30
2022-08-03T12:11:00.449Z,70.70
2022-08-03T12:14:26.891Z,71.60
2022-08-03T12:16:26.450Z,70.10
2022-08-03T12:18:58.547Z,77.60
2022-08-03T12:21:28.722Z,73.80
2022-08-03T12:24:03.060Z,69.00
2022-08-03T12:26:33.093Z,68.80
2022-08-03T12:29:01.136Z,70.90
2022-08-03T12:31:29.274Z,70.30
2022-08-03T12:33:59.535Z,73.40
2022-08-03T12:36:30.709Z,71.40
2022-08-03T12:39:00.218Z,67.80
2022-08-03T12:41:34.017Z,72.40
2022-08-03T12:44:04.384Z,69.50
2022-08-03T12:46:35.177Z,75.40
2022-08-03T12:49:12.095Z,73.90
2022-08-03T12:52:00.792Z,70.10
2022-08-03T12:54:33.921Z,71.00
2022-08-03T12:57:03.454Z,69.50
2022-08-03T12:59:35.204Z,78.30
2022-08-03T13:02:17.721Z,65.60
2022-08-03T13:04:47.348Z,75.60
2022-08-03T13:07:18.278Z,71.10
2022-08-03T13:09:49.774Z,71.40
2022-08-03T13:12:19.233Z,71.30
2022-08-03T13:14:50.209Z,70.60
2022-08-03T13:17:18.674Z,71.10
2022-08-03T13:19:47.879Z,66.60
2022-08-03T13:22:18.857Z,67.30
2022-08-03T13:24:48.603Z,65.70
2022-08-03T13:28:04.079Z,67.10
2022-08-03T13:30:11.842Z,67.60
2022-08-03T13:32:40.841Z,69.00
2022-08-03T13:35:10.335Z,68.60
2022-08-03T13:37:39.927Z,67.70
2022-08-03T13:40:09.276Z,67.10
2022-08-03T13:42:39.813Z,68.80
2022-08-03T13:45:09.247Z,64.70
2022-08-03T13:47:37.867Z,64.90
2022-08-03T13:50:06.355Z,64.10
2022-08-03T13:52:36.264Z,66.70
2022-08-03T13:55:07.891Z,67.80
2022-08-03T13:58:02.820Z,63.90
2022-08-03T14:00:28.691Z,69.40
2022-08-03T14:03:05.379Z,68.10
2022-08-03T14:05:38.650Z,67.50
2022-08-03T14:08:07.936Z,66.00
2022-08-03T14:10:39.869Z,69.90
2022-08-03T14:13:08.540Z,65.00
2022-08-03T14:15:38.099Z,70.10
2022-08-03T14:18:07.357Z,67.20
2022-08-03T14:20:47.855Z,68.30
2022-08-03T14:23:20.072Z,66.80
2022-08-03T14:25:51.756Z,66.60
2022-08-03T14:28:23.573Z,65.30
2022-08-03T14:30:52.654Z,65.10
2022-08-03T14:33:20.953Z,66.60
2022-08-03T14:35:49.371Z,66.80
2022-08-03T14:38:18.410Z,65.20
2022-08-03T14:40:46.835Z,65.60
2022-08-03T14:43:17.892Z,63.50
2022-08-03T14:45:45.975Z,63.80
2022-08-03T14:50:31.971Z,67.20
2022-08-03T14:51:02.271Z,64.50
2022-08-03T14:53:31.695Z,64.90
2022-08-03T14:55:59.761Z,67.70
2022-08-03T14:58:29.194Z,66.00
2022-08-03T15:00:57.366Z,66.10
2022-08-03T15:03:26.239Z,64.00
2022-08-03T15:05:56.235Z,64.90
2022-08-03T15:08:25.403Z,62.80
2022-08-03T15:10:53.959Z,62.60
2022-08-03T15:13:22.525Z,63.40
2022-08-03T15:15:52.282Z,66.10
2022-08-03T15:18:21.662Z,64.80
2022-08-03T15:20:50.861Z,63.40
2022-08-03T15:23:20.124Z,64.10
2022-08-03T15:26:29.293Z,64.50
2022-08-03T15:28:37.423Z,65.70
2022-08-03T15:31:07.544Z,66.10
2022-08-03T15:33:35.617Z,64.30
2022-08-03T15:36:04.244Z,64.00
2022-08-03T15:38:32.443Z,64.00
2022-08-03T15:41:00.516Z,65.10
2022-08-03T15:43:28.539Z,64.60
2022-08-03T15:46:27.599Z,64.70
2022-08-03T15:48:46.044Z,64.90
2022-08-03T15:51:14.086Z,66.50
2022-08-03T15:53:42.244Z,67.10
2022-08-03T15:56:13.249Z,67.40
2022-08-03T15:59:10.431Z,65.50
2022-08-03T16:01:33.129Z,66.30
2022-08-03T16:04:02.595Z,65.60
2022-08-03T16:06:35.963Z,64.90
2022-08-03T16:09:24.344Z,65.50
2022-08-03T16:11:54.508Z,69.40
2022-08-03T16:14:32.536Z,65.70
2022-08-03T16:17:04.264Z,66.80
2022-08-03T16:19:33.698Z,68.40
2022-08-03T16:22:01.734Z,67.70
2022-08-03T16:24:31.699Z,70.20
2022-08-03T16:27:00.451Z,69.70
2022-08-03T16:29:29.434Z,69.50
2022-08-03T16:31:57.527Z,69.50
2022-08-03T16:34:25.628Z,70.80
2022-08-03T16:36:55.646Z,72.20
2022-08-03T16:39:23.797Z,73.90
2022-08-03T16:41:53.557Z,74.40
2022-08-03T16:44:30.076Z,76.10
2022-08-03T16:46:58.230Z,78.80
2022-08-03T16:49:54.628Z,79.60
2022-08-03T16:52:16.608Z,80.70
2022-08-03T16:54:50.748Z,84.00
2022-08-03T16:57:58.304Z,86.50
2022-08-03T17:00:10.604Z,87.00
2022-08-03T17:02:39.259Z,88.10
2022-08-03T17:05:11.373Z,87.80
2022-08-03T17:07:41.885Z,87.50
2022-08-03T17:10:15.050Z,88.50
2022-08-03T17:12:50.602Z,89.40
2022-08-03T17:15:18.704Z,90.00
2022-08-03T17:17:55.799Z,88.30
2022-08-03T17:20:29.677Z,89.60
2022-08-03T17:23:14.528Z,90.40
2022-08-03T17:26:02.095Z,90.70
2022-08-03T17:28:50.157Z,91.10
2022-08-03T17:31:31.585Z,91.10
2022-08-03T17:34:01.849Z,91.50
2022-08-03T17:37:00.916Z,91.70
2022-08-03T17:39:35.838Z,91.50
2022-08-03T17:42:30.494Z,92.60
2022-08-03T17:44:58.202Z,92.50
2022-08-03T17:47:42.248Z,92.80
2022-08-03T17:50:24.275Z,93.00
2022-08-03T17:53:07.154Z,92.80
2022-08-03T17:55:55.681Z,93.40
2022-08-03T17:58:41.426Z,93.80
2022-08-03T18:02:02.076Z,94.30
2022-08-03T18:04:29.669Z,94.30
2022-08-03T18:07:10.961Z,94.30
2022-08-03T18:10:04.008Z,94.70
2022-08-03T18:12:44.907Z,94.80
2022-08-03T18:15:21.163Z,95.00
2022-08-03T18:18:02.192Z,94.80
2022-08-03T18:20:41.194Z,95.00
2022-08-03T18:23:25.154Z,95.10
2022-08-03T18:26:02.214Z,95.30
2022-08-03T18:28:36.212Z,95.60
2022-08-03T18:31:05.785Z,95.30
2022-08-03T18:34:19.087Z,94.80
2022-08-03T18:36:30.560Z,95.30
2022-08-03T18:39:00.370Z,95.90
2022-08-03T18:41:32.356Z,96.50
2022-08-03T18:44:09.497Z,96.70
2022-08-03T18:47:16.642Z,96.90
2022-08-03T18:49:57.840Z,97.40
2022-08-03T18:52:35.116Z,97.50
2022-08-03T18:55:20.566Z,97.50
2022-08-03T18:57:57.045Z,97.50
2022-08-03T19:00:54.220Z,97.80
2022-08-03T19:03:24.842Z,97.90
2022-08-03T19:06:19.191Z,97.40
2022-08-03T19:08:51.067Z,97.40
2022-08-03T19:11:27.804Z,98.10
2022-08-03T19:14:00.253Z,98.70
2022-08-03T19:16:38.726Z,99.20
2022-08-03T19:19:10.883Z,99.50
2022-08-03T19:21:42.720Z,99.60
2022-08-03T19:24:11.200Z,99.70
2022-08-03T19:26:41.310Z,99.80
2022-08-03T19:29:15.417Z,99.90
2022-08-03T19:31:58.923Z,99.90
2022-08-03T19:34:30.140Z,99.90
2022-08-03T19:36:59.149Z,99.90
2022-08-03T19:39:28.156Z,99.90
2022-08-03T19:42:18.499Z,99.90
2022-08-03T19:45:00.898Z,99.90
2022-08-03T19:47:34.688Z,99.90
2022-08-03T19:50:14.127Z,99.90
2022-08-03T19:52:45.043Z,99.90
2022-08-03T19:55:13.092Z,99.90
2022-08-03T19:57:47.149Z,99.90
2022-08-03T20:00:26.659Z,99.90
2022-08-03T20:03:00.009Z,99.90
2022-08-03T20:05:28.266Z,99.90
2022-08-03T20:07:59.426Z,99.90
2022-08-03T20:10:27.500Z,99.90
2022-08-03T20:12:56.082Z,99.90
2022-08-03T20:15:31.810Z,99.90
2022-08-03T20:18:01.485Z,99.90
2022-08-03T20:20:33.093Z,99.90
2022-08-03T20:23:07.471Z,99.90
2022-08-03T20:25:57.084Z,99.90
2022-08-03T20:28:31.680Z,99.90
2022-08-03T20:31:01.757Z,99.90
2022-08-03T20:33:48.316Z,99.90
2022-08-03T20:36:18.640Z,99.90
2022-08-03T20:38:48.239Z,99.90
2022-08-03T20:41:17.499Z,99.90
2022-08-03T20:43:46.065Z,99.90
2022-08-03T20:46:30.952Z,99.90
2022-08-03T20:49:06.356Z,99.90
2022-08-03T20:51:50.550Z,99.90
2022-08-03T20:54:28.839Z,99.90
2022-08-03T20:56:59.182Z,99.90
2022-08-03T20:59:36.950Z,99.90
2022-08-03T21:02:19.797Z,99.90
2022-08-03T21:05:03.682Z,99.90
2022-08-03T21:08:03.749Z,99.90
2022-08-03T21:10:31.527Z,99.90
2022-08-03T21:13:16.409Z,99.90
2022-08-03T21:16:06.719Z,99.90
2022-08-03T21:18:38.728Z,99.90
2022-08-03T21:21:11.139Z,99.90
2022-08-03T21:23:48.630Z,99.90
2022-08-03T21:26:18.866Z,99.90
2022-08-03T21:28:48.542Z,99.90
2022-08-03T21:31:25.553Z,99.90
2022-08-03T21:33:56.859Z,99.90
2022-08-03T21:36:27.772Z,99.90
2022-08-03T21:38:57.385Z,99.90
2022-08-03T21:41:26.643Z,99.90
2022-08-03T21:43:54.913Z,99.90
2022-08-03T21:46:24.258Z,99.90
2022-08-03T21:50:05.215Z,99.90
2022-08-03T21:51:49.767Z,99.90
2022-08-03T21:54:18.880Z,99.90
2022-08-03T21:56:48.970Z,99.90
2022-08-03T21:59:19.484Z,99.90
2022-08-03T22:01:51.326Z,99.90
2022-08-03T22:04:50.569Z,99.90
2022-08-03T22:07:11.618Z,99.90
2022-08-03T22:09:39.833Z,99.90
2022-08-03T22:12:18.602Z,99.90
2022-08-03T22:14:47.111Z,99.90
2022-08-03T22:17:53.711Z,99.90
2022-08-03T22:20:05.669Z,99.90
2022-08-03T22:22:37.466Z,99.90
2022-08-03T22:25:09.119Z,99.90
2022-08-03T22:27:40.376Z,99.90
2022-08-03T22:30:12.660Z,99.90
2022-08-03T22:32:42.020Z,99.90
2022-08-03T22:35:11.985Z,99.90
2022-08-03T22:37:42.277Z,99.90
2022-08-03T22:40:13.922Z,99.90
2022-08-03T22:42:43.067Z,99.90
2022-08-03T22:45:11.583Z,99.90
2022-08-03T22:48:00.593Z,99.90
2022-08-03T22:50:33.470Z,99.90
2022-08-03T22:53:03.491Z,99.90
2022-08-03T22:55:32.074Z,99.90
2022-08-03T22:58:00.119Z,99.90
2022-08-03T23:00:28.164Z,99.90
2022-08-03T23:02:58.085Z,99.90
2022-08-03T23:06:02.188Z,99.90
2022-08-03T23:08:24.944Z,99.90
2022-08-03T23:10:54.616Z,99.90
2022-08-03T23:13:26.095Z,99.90
2022-08-03T23:15:57.745Z,99.90
2022-08-03T23:18:32.942Z,99.90
2022-08-03T23:21:10.940Z,99.90
2022-08-03T23:23:44.385Z,99.90
2022-08-03T23:26:13.724Z,99.90
2022-08-03T23:28:46.122Z,99.90
2022-08-03T23:31:15.746Z,99.90
2022-08-03T23:33:46.621Z,99.90
2022-08-03T23:36:30.939Z,99.90
2022-08-03T23:39:03.553Z,99.90
2022-08-03T23:41:33.827Z,99.90
2022-08-03T23:44:03.644Z,99.90
2022-08-03T23:46:32.952Z,99.90
2022-08-03T23:49:01.547Z,99.90
2022-08-03T23:51:40.091Z,99.90
2022-08-03T23:54:23.133Z,99.90
2022-08-03T23:56:56.265Z,99.90
2022-08-03T23:59:32.130Z,99.90
